Time;durP1;ratioP1;P1;durP2;ratioP2;P2;SDS_P1;SDS_P2;PMS_P1;PMS_P2;Temp;Humidity;BMP_temperature;BMP_pressure;BME280_temperature;BME280_humidity;BME280_pressure;Samples;Min_cycle;Max_cycle;Signal;HPM_P1;HPM_P2
2023/01/31 05:03:01;;;;;;;4.93;1.95;;;;;;;2.41;100.00;100274.22;5204985;34;33343;-87
2023/01/31 05:06:04;;;;;;;6.95;2.25;;;;;;;2.41;100.00;100282.19;5206438;34;35015;-87
2023/01/31 05:09:07;;;;;;;3.45;1.90;;;;;;;2.46;100.00;100284.47;5207081;34;33795;-87
2023/01/31 05:12:10;;;;;;;2.30;1.92;;;;;;;2.37;100.00;100278.13;5206159;34;34177;-87
2023/01/31 05:15:13;;;;;;;1.90;1.70;;;;;;;2.32;100.00;100304.19;5205676;34;34767;-87
2023/01/31 05:18:16;;;;;;;1.45;1.40;;;;;;;2.36;100.00;100302.13;5217924;34;33998;-87
2023/01/31 05:21:19;;;;;;;3.97;1.85;;;;;;;2.16;100.00;100293.97;5221831;34;34072;-87
2023/01/31 05:24:23;;;;;;;6.53;1.75;;;;;;;1.93;100.00;100295.88;5221893;34;34347;-86
2023/01/31 05:27:26;;;;;;;3.35;1.90;;;;;;;1.77;100.00;100287.47;5220473;34;33949;-87
2023/01/31 05:30:29;;;;;;;2.35;1.52;;;;;;;1.67;100.00;100291.81;5227230;34;34801;-87
2023/01/31 05:33:33;;;;;;;2.60;2.00;;;;;;;1.53;100.00;100298.22;5203969;34;33917;-87
2023/01/31 05:36:36;;;;;;;3.90;2.00;;;;;;;1.50;100.00;100287.87;5205039;34;34037;-87
2023/01/31 05:39:39;;;;;;;5.47;2.22;;;;;;;1.38;100.00;100286.19;5212904;34;34030;-86
2023/01/31 05:42:42;;;;;;;3.37;2.40;;;;;;;1.34;100.00;100294.34;5234620;34;33768;-87
2023/01/31 05:45:47;;;;;;;2.95;2.47;;;;;;;1.34;100.00;100299.66;5223795;34;35221;-87
2023/01/31 05:48:50;;;;;;;8.27;2.37;;;;;;;1.35;100.00;100289.94;5221751;34;34255;-87
2023/01/31 05:51:53;;;;;;;4.78;2.40;;;;;;;1.33;100.00;100282.06;5228911;34;34673;-87
2023/01/31 05:54:56;;;;;;;3.30;2.83;;;;;;;1.42;100.00;100280.50;5234824;34;35353;-87
2023/01/31 05:57:59;;;;;;;6.45;2.83;;;;;;;1.43;100.00;100276.03;5226326;34;34546;-87
2023/01/31 06:01:03;;;;;;;3.45;2.67;;;;;;;1.47;100.00;100269.53;5237083;33;34464;-86
2023/01/31 06:04:06;;;;;;;2.40;2.20;;;;;;;1.60;100.00;100270.22;5251818;34;34704;-87
2023/01/31 06:07:08;;;;;;;6.30;2.75;;;;;;;1.66;100.00;100256.47;5241349;34;34867;-87
2023/01/31 06:10:12;;;;;;;5.60;2.85;;;;;;;1.67;100.00;100260.81;5239978;34;33743;-86
2023/01/31 06:13:15;;;;;;;5.93;2.45;;;;;;;1.70;100.00;100263.22;5239664;34;34126;-87
2023/01/31 06:16:18;;;;;;;4.45;2.55;;;;;;;1.63;100.00;100271.81;5241153;34;34926;-87
2023/01/31 06:19:24;;;;;;;2.45;2.08;;;;;;;1.66;100.00;100284.81;5240135;34;33677;-87
2023/01/31 06:22:27;;;;;;;5.75;2.53;;;;;;;1.70;100.00;100284.47;5240174;34;34039;-87
2023/01/31 06:25:30;;;;;;;5.20;2.50;;;;;;;1.71;100.00;100285.31;5240725;34;33816;-86
2023/01/31 06:28:35;;;;;;;3.72;2.42;;;;;;;1.71;100.00;100295.91;5241180;34;33899;-87
2023/01/31 06:31:38;;;;;;;4.20;2.58;;;;;;;1.73;100.00;100292.19;5240273;34;34336;-87
2023/01/31 06:34:41;;;;;;;2.62;2.30;;;;;;;1.79;100.00;100306.78;5239301;34;35477;-86
2023/01/31 06:37:43;;;;;;;2.58;2.33;;;;;;;1.79;100.00;100317.38;5239479;34;34119;-87
2023/01/31 06:40:46;;;;;;;6.15;2.37;;;;;;;1.80;100.00;100313.75;5238546;34;35859;-87
2023/01/31 06:43:50;;;;;;;3.95;2.55;;;;;;;1.81;100.00;100318.09;5239233;34;33992;-87
2023/01/31 06:46:53;;;;;;;4.70;2.62;;;;;;;1.85;100.00;100311.59;5235481;33;34006;-87
2023/01/31 06:49:56;;;;;;;4.62;2.08;;;;;;;1.95;100.00;100319.63;5228204;34;33692;-87
2023/01/31 06:52:59;;;;;;;3.90;2.17;;;;;;;1.92;100.00;100341.97;5239455;34;34061;-87
2023/01/31 06:56:02;;;;;;;2.83;1.85;;;;;;;2.00;100.00;100333.38;5234442;33;34493;-87
2023/01/31 06:59:04;;;;;;;2.37;2.17;;;;;;;2.03;100.00;100339.28;5238600;33;33853;-87
2023/01/31 07:02:10;;;;;;;3.33;1.95;;;;;;;2.08;100.00;100348.69;5238357;34;34266;-87
2023/01/31 07:05:13;;;;;;;3.90;2.05;;;;;;;2.17;100.00;100346.16;5238169;34;35508;-86
2023/01/31 07:08:16;;;;;;;3.12;2.10;;;;;;;2.27;100.00;100341.75;5241529;34;35305;-87
2023/01/31 07:11:21;;;;;;;3.45;1.80;;;;;;;2.39;100.00;100345.22;5235393;34;244049;-89
2023/01/31 07:14:25;;;;;;;3.72;2.05;;;;;;;2.42;100.00;100355.59;5242611;34;35370;-89
2023/01/31 07:17:29;;;;;;;4.15;2.10;;;;;;;2.47;100.00;100348.09;5242099;34;35314;-91
2023/01/31 07:20:32;;;;;;;5.85;2.35;;;;;;;2.59;100.00;100364.00;5243729;34;33688;-88
2023/01/31 07:24:00;;;;;;;4.07;2.60;;;;;;;2.69;100.00;100367.56;5273445;28;33677;-86
2023/01/31 07:27:03;;;;;;;2.40;1.95;;;;;;;2.69;100.00;100370.22;5241515;34;33896;-87
2023/01/31 07:30:07;;;;;;;5.95;2.10;;;;;;;2.83;100.00;100369.94;5242575;34;33984;-87
2023/01/31 07:33:10;;;;;;;4.75;1.90;;;;;;;2.95;100.00;100390.19;5247339;33;33911;-87
2023/01/31 07:36:18;;;;;;;3.37;2.22;;;;;;;3.18;100.00;100392.72;5243426;34;35257;-87
2023/01/31 07:39:22;;;;;;;4.53;1.98;;;;;;;3.60;100.00;100406.00;5240949;34;34041;-87
2023/01/31 07:42:27;;;;;;;2.53;1.80;;;;;;;3.60;100.00;100406.84;5241948;33;33612;-87
2023/01/31 07:45:30;;;;;;;3.20;2.62;;;;;;;3.56;100.00;100428.53;5242519;34;34007;-87
2023/01/31 07:48:34;;;;;;;3.22;1.90;;;;;;;3.53;100.00;100408.34;5242720;34;34739;-87
2023/01/31 07:51:37;;;;;;;2.90;2.00;;;;;;;3.42;100.00;100416.37;5242601;34;33862;-87
2023/01/31 07:54:41;;;;;;;4.35;2.62;;;;;;;3.47;100.00;100402.69;5271020;28;33873;-87
2023/01/31 07:57:44;;;;;;;4.20;2.00;;;;;;;3.52;100.00;100427.94;5223246;34;34174;-87
2023/01/31 08:04:11;;;;;;;5.62;2.42;;;;;;;3.57;98.91;100424.91;5223400;34;34088;-88
2023/01/31 08:07:24;;;;;;;2.55;1.92;;;;;;;3.58;98.83;100431.91;5318568;28;35294;-87
2023/01/31 08:10:28;;;;;;;6.40;2.37;;;;;;;3.69;97.67;100429.16;5248064;33;33857;-87
2023/01/31 08:13:34;;;;;;;3.55;2.12;;;;;;;3.91;97.80;100428.13;5246067;33;33540;-87
2023/01/31 08:16:37;;;;;;;2.53;2.08;;;;;;;4.10;96.32;100440.72;5256053;33;33758;-86
2023/01/31 08:19:40;;;;;;;1.80;1.70;;;;;;;4.19;95.17;100452.38;5247167;33;34028;-87
2023/01/31 08:22:43;;;;;;;3.67;2.12;;;;;;;4.28;94.53;100454.22;5248176;33;33864;-86
2023/01/31 08:25:46;;;;;;;5.30;1.90;;;;;;;4.27;94.59;100460.50;5239233;33;33768;-86
2023/01/31 08:28:50;;;;;;;5.75;2.10;;;;;;;4.17;95.00;100481.81;5250717;33;34200;-87
2023/01/31 08:31:53;;;;;;;2.25;1.90;;;;;;;4.11;95.62;100498.34;5247670;33;34880;-85
2023/01/31 08:34:56;;;;;;;2.75;1.95;;;;;;;4.27;94.01;100506.69;5254931;33;34123;-86
2023/01/31 08:38:03;;;;;;;2.80;1.92;;;;;;;4.32;93.65;100516.94;5255972;33;35379;-90
2023/01/31 08:41:20;;;;;;;3.90;2.08;;;;;;;4.32;94.27;100514.25;5242976;33;33500;-86
2023/01/31 08:44:23;;;;;;;4.55;2.10;;;;;;;4.36;93.71;100517.50;5231201;33;34010;-87
2023/01/31 08:47:26;;;;;;;4.28;2.08;;;;;;;4.39;93.16;100523.44;5247895;33;34358;-88
2023/01/31 08:50:31;;;;;;;2.75;1.90;;;;;;;4.50;93.22;100539.34;5260655;33;34462;-88
2023/01/31 08:53:44;;;;;;;2.60;1.75;;;;;;;4.58;92.30;100543.13;5248899;33;34335;-87
2023/01/31 08:56:47;;;;;;;3.95;1.90;;;;;;;4.46;93.22;100545.87;5244396;33;34405;-85
2023/01/31 08:59:50;;;;;;;2.50;2.10;;;;;;;4.53;92.56;100547.06;5243048;33;35198;-84
2023/01/31 09:02:55;;;;;;;6.85;2.03;;;;;;;4.62;92.49;100553.41;5244110;33;33918;-85
2023/01/31 09:05:59;;;;;;;3.83;1.90;;;;;;;4.67;92.74;100553.81;5239996;33;33445;-87
2023/01/31 09:09:03;;;;;;;7.03;2.30;;;;;;;4.76;91.71;100554.84;5234800;33;33871;-86
2023/01/31 09:12:06;;;;;;;2.97;1.83;;;;;;;4.71;91.29;100565.91;5244773;34;34294;-86
2023/01/31 09:15:09;;;;;;;4.50;2.15;;;;;;;4.75;90.35;100563.81;5238389;34;33119;-87
2023/01/31 09:18:12;;;;;;;4.70;2.10;;;;;;;4.83;89.06;100564.00;5237764;34;34027;-87
2023/01/31 09:21:18;;;;;;;7.18;2.20;;;;;;;4.76;88.13;100574.34;5234054;34;34291;-87
2023/01/31 09:24:22;;;;;;;4.50;2.60;;;;;;;4.88;88.41;100571.56;5236443;34;34370;-85
2023/01/31 09:27:24;;;;;;;4.00;1.83;;;;;;;5.09;90.58;100585.69;5238626;34;34389;-85
2023/01/31 09:30:27;;;;;;;6.40;2.65;;;;;;;5.14;88.82;100580.75;5228212;34;33828;-86
2023/01/31 09:33:32;;;;;;;2.35;2.05;;;;;;;5.18;88.82;100597.38;5237838;34;34216;-86
2023/01/31 09:36:35;;;;;;;5.15;1.77;;;;;;;5.25;87.23;100592.31;5243973;34;34284;-87
2023/01/31 09:39:38;;;;;;;2.92;1.83;;;;;;;5.17;85.78;100592.97;5243520;33;34197;-87
2023/01/31 09:42:43;;;;;;;2.33;1.75;;;;;;;5.33;84.75;100590.63;5242829;34;33972;-87
2023/01/31 09:45:48;;;;;;;6.50;2.25;;;;;;;5.38;85.60;100593.75;5245784;34;34246;-88
2023/01/31 09:48:54;;;;;;;5.40;1.70;;;;;;;5.34;84.24;100594.13;5242245;33;33271;-87
2023/01/31 09:52:00;;;;;;;6.10;1.92;;;;;;;5.38;84.56;100584.84;5242618;34;33576;-88
2023/01/31 09:55:12;;;;;;;4.35;2.10;;;;;;;5.58;83.65;100589.22;5240088;34;34730;-87
2023/01/31 09:58:49;;;;;;;3.05;2.12;;;;;;;5.90;81.82;100596.09;5239102;34;34124;-87
2023/01/31 10:02:05;;;;;;;3.08;1.92;;;;;;;5.85;81.45;100598.34;5233017;34;33703;-85
2023/01/31 10:05:32;;;;;;;3.45;2.00;;;;;;;5.62;82.86;100600.50;5238947;34;33938;-85
2023/01/31 10:08:38;;;;;;;5.18;1.80;;;;;;;5.94;81.46;100597.56;5241327;34;34035;-86
2023/01/31 10:11:59;;;;;;;5.35;2.20;;;;;;;5.81;83.45;100599.63;5241798;34;34737;-86
2023/01/31 10:15:12;;;;;;;;;;;;;;;5.82;84.16;100609.31;5242298;34;33704;-87
2023/01/31 10:18:21;;;;;;;4.12;2.10;;;;;;;6.03;84.00;100601.22;5253941;33;35518;-87
2023/01/31 10:21:30;;;;;;;3.65;2.20;;;;;;;6.12;81.69;100603.84;5240004;34;34230;-87
2023/01/31 10:24:44;;;;;;;4.00;1.95;;;;;;;6.43;81.27;100605.47;5241347;34;34305;-87
2023/01/31 10:27:51;;;;;;;4.90;1.98;;;;;;;6.50;78.15;100598.56;5229863;34;34032;-87
2023/01/31 10:30:58;;;;;;;2.17;1.77;;;;;;;6.22;77.16;100586.94;5229163;34;36220;-87
2023/01/31 10:34:16;;;;;;;4.32;2.30;;;;;;;6.03;77.32;100595.88;5237662;34;34374;-87
2023/01/31 10:37:35;;;;;;;2.37;2.05;;;;;;;5.96;77.10;100589.37;5226585;34;35023;-87
2023/01/31 10:40:44;;;;;;;2.83;2.03;;;;;;;6.06;77.76;100585.72;5233225;34;35300;-91
2023/01/31 10:43:56;;;;;;;5.03;2.00;;;;;;;6.12;77.35;100590.50;5234015;34;34719;-87
2023/01/31 10:46:59;;;;;;;2.83;1.58;;;;;;;6.27;76.99;100587.38;5236521;34;34559;-87
2023/01/31 10:50:19;;;;;;;4.50;1.70;;;;;;;6.33;75.38;100592.13;5237508;34;34375;-86
2023/01/31 10:54:01;;;;;;;3.45;1.85;;;;;;;6.16;76.37;100584.84;5239975;34;33864;-87
2023/01/31 10:57:04;;;;;;;4.65;2.05;;;;;;;5.80;75.29;100601.47;5236629;34;34193;-87
2023/01/31 11:00:21;;;;;;;3.33;1.80;;;;;;;5.58;75.86;100581.22;5241723;34;34678;-87
2023/01/31 11:03:25;;;;;;;3.47;1.80;;;;;;;5.78;76.64;100575.87;5247455;33;34191;-87
2023/01/31 11:06:27;;;;;;;4.78;2.10;;;;;;;5.97;74.39;100559.88;5243332;34;34132;-87
2023/01/31 11:09:38;;;;;;;4.18;1.70;;;;;;;6.07;72.34;100560.66;5242735;34;34909;-87
2023/01/31 11:12:52;;;;;;;4.32;1.80;;;;;;;6.02;72.66;100560.25;5241643;34;34902;-87
2023/01/31 11:15:56;;;;;;;3.20;1.73;;;;;;;5.99;72.89;100551.69;5239583;34;34473;-87
2023/01/31 11:19:03;;;;;;;3.08;1.50;;;;;;;5.96;75.77;100555.47;5235247;34;35114;-87
2023/01/31 11:22:08;;;;;;;5.55;2.00;;;;;;;6.14;74.59;100544.88;5238124;34;35182;-87
2023/01/31 11:25:20;;;;;;;3.78;1.52;;;;;;;6.14;72.52;100547.56;5248701;33;34198;-87
2023/01/31 11:28:33;;;;;;;3.08;1.23;;;;;;;6.08;73.00;100556.16;5242039;34;35333;-90
2023/01/31 11:31:40;;;;;;;5.97;2.08;;;;;;;6.15;69.31;100545.75;5247480;34;33821;-88
2023/01/31 11:35:21;;;;;;;3.05;1.50;;;;;;;6.39;72.27;100546.09;5243226;34;34122;-87
2023/01/31 11:38:25;;;;;;;2.42;1.40;;;;;;;6.36;69.38;100544.53;5241086;34;33844;-87
2023/01/31 11:41:36;;;;;;;2.15;1.58;;;;;;;6.67;66.92;100546.97;5239648;34;33755;-87
2023/01/31 11:44:57;;;;;;;5.95;2.00;;;;;;;6.95;65.26;100542.41;5234705;34;34269;-87
2023/01/31 11:48:11;;;;;;;1.70;1.42;;;;;;;6.86;65.63;100545.16;5238456;33;34049;-87
2023/01/31 11:51:29;;;;;;;2.87;1.45;;;;;;;7.04;65.02;100530.81;5241870;34;33937;-87
2023/01/31 11:54:33;;;;;;;5.15;1.52;;;;;;;7.65;62.64;100525.69;5243477;34;34781;-87
2023/01/31 11:57:38;;;;;;;4.30;1.60;;;;;;;7.63;60.58;100522.31;5242759;34;35083;-87
2023/01/31 12:00:52;;;;;;;3.80;1.62;;;;;;;7.82;60.96;100530.19;5241660;33;36197;-87
2023/01/31 12:04:04;;;;;;;3.62;1.45;;;;;;;8.19;57.85;100518.37;5243744;33;34585;-86
2023/01/31 12:07:22;;;;;;;5.20;1.92;;;;;;;8.29;57.57;100534.34;5244040;34;34142;-87
2023/01/31 12:10:41;;;;;;;3.08;1.58;;;;;;;8.12;56.34;100525.34;5239286;34;35309;-90
2023/01/31 12:13:52;;;;;;;2.72;1.70;;;;;;;7.65;58.03;100531.03;5244346;34;33825;-87
2023/01/31 12:16:55;;;;;;;2.67;1.25;;;;;;;7.49;59.51;100534.44;5247076;34;34721;-87
2023/01/31 12:20:08;;;;;;;2.28;1.23;;;;;;;7.88;58.32;100523.34;5246399;33;34295;-88
2023/01/31 12:23:47;;;;;;;2.00;1.30;;;;;;;8.09;58.41;100529.19;5242140;34;33823;-88
2023/01/31 12:27:45;;;;;;;2.33;1.37;;;;;;;8.99;55.90;100520.72;5250998;34;34179;-87
2023/01/31 12:31:27;;;;;;;3.30;1.37;;;;;;;9.39;53.58;100508.34;5218632;33;33665;-87
2023/01/31 12:35:08;;;;;;;1.98;1.40;;;;;;;8.82;54.22;100533.25;5297053;28;35423;-86
2023/01/31 12:38:39;;;;;;;3.40;1.30;;;;;;;8.50;54.69;100529.44;5285453;28;34323;-88
2023/01/31 12:42:06;;;;;;;4.90;1.62;;;;;;;9.65;53.33;100527.00;5265079;33;35347;-88
2023/01/31 12:45:31;;;;;;;3.17;1.33;;;;;;;9.37;52.49;100513.06;5269370;33;34288;-88
2023/01/31 12:48:46;;;;;;;3.53;1.35;;;;;;;8.58;54.81;100518.75;5279745;33;35098;-87
2023/01/31 12:51:49;;;;;;;3.30;1.52;;;;;;;7.66;57.91;100530.91;5264485;33;34295;-88
2023/01/31 12:55:09;;;;;;;2.97;1.67;;;;;;;7.17;60.57;100537.66;5267520;33;35102;-88
2023/01/31 12:58:53;;;;;;;3.23;1.90;;;;;;;6.98;63.63;100525.22;5282094;33;34985;-90
2023/01/31 13:02:37;;;;;;;4.25;2.00;;;;;;;6.84;63.01;100531.91;5268346;33;34282;-88
2023/01/31 13:05:51;;;;;;;1.50;1.40;;;;;;;6.38;65.21;100544.41;5272843;33;33999;-88
2023/01/31 13:09:08;;;;;;;2.33;1.40;;;;;;;5.95;65.73;100558.31;5273842;33;35510;-88
2023/01/31 13:12:20;;;;;;;1.70;1.23;;;;;;;5.78;65.69;100565.19;5329721;28;35218;-87
2023/01/31 13:15:43;;;;;;;1.67;1.58;;;;;;;5.52;65.52;100578.28;5259654;33;34114;-87
2023/01/31 13:18:48;;;;;;;2.92;1.92;;;;;;;5.55;65.81;100578.81;5260155;33;33812;-87
2023/01/31 13:21:57;;;;;;;4.72;1.83;;;;;;;5.39;68.15;100578.56;5259732;33;34516;-87
2023/01/31 13:25:28;;;;;;;2.72;1.70;;;;;;;5.62;67.26;100582.63;5259978;33;35037;-87
2023/01/31 13:28:42;;;;;;;2.90;1.40;;;;;;;6.00;68.62;100572.94;5260580;33;33330;-87
2023/01/31 13:31:52;;;;;;;3.67;1.73;;;;;;;6.09;66.46;100584.59;5258628;33;34425;-87
2023/01/31 13:35:20;;;;;;;3.17;1.67;;;;;;;6.13;67.19;100592.16;5258132;33;34497;-87
2023/01/31 13:38:29;;;;;;;3.78;1.90;;;;;;;5.97;67.34;100594.59;5259127;33;33797;-87
2023/01/31 13:41:33;;;;;;;4.47;1.92;;;;;;;5.93;68.05;100594.97;5297699;28;33686;-87
2023/01/31 13:44:36;;;;;;;3.37;1.95;;;;;;;5.89;67.81;100597.09;5258027;33;33678;-87
2023/01/31 13:47:51;;;;;;;3.35;1.80;;;;;;;5.88;67.94;100593.59;5259740;33;35362;-86
2023/01/31 13:51:16;;;;;;;3.58;1.60;;;;;;;5.65;68.13;100592.19;5267002;28;34650;-88
2023/01/31 13:54:38;;;;;;;2.90;1.65;;;;;;;5.58;69.60;100594.56;5247208;33;34452;-88
2023/01/31 13:57:46;;;;;;;2.83;2.12;;;;;;;5.60;71.02;100597.13;5247944;34;34320;-88
2023/01/31 14:01:06;;;;;;;3.33;1.83;;;;;;;5.55;72.23;100596.69;5248090;33;35210;-89
2023/01/31 14:04:10;;;;;;;3.30;1.98;;;;;;;5.43;70.52;100606.66;5247860;34;34204;-88
2023/01/31 14:07:17;;;;;;;5.25;1.55;;;;;;;5.31;70.68;100603.25;5248279;33;34283;-88
2023/01/31 14:10:25;;;;;;;2.95;1.85;;;;;;;5.29;71.37;100607.88;5237482;34;34787;-88
2023/01/31 14:13:40;;;;;;;2.00;1.77;;;;;;;5.37;72.27;100604.53;5234131;34;35026;-88
2023/01/31 14:16:45;;;;;;;5.70;2.00;;;;;;;5.39;72.43;100611.44;5243153;33;35313;-87
2023/01/31 14:19:48;;;;;;;1.92;1.70;;;;;;;5.36;75.41;100621.56;5244920;34;36258;-88
2023/01/31 14:23:30;;;;;;;5.03;1.90;;;;;;;5.39;73.64;100626.63;5243284;34;34137;-88
2023/01/31 14:26:51;;;;;;;3.42;1.80;;;;;;;5.36;74.30;100621.56;5243274;34;34214;-87
2023/01/31 14:30:14;;;;;;;3.15;2.20;;;;;;;5.18;76.68;100621.38;5242676;34;34838;-87
2023/01/31 14:33:27;;;;;;;2.35;1.60;;;;;;;5.01;76.65;100620.22;5239254;34;34005;-87
2023/01/31 14:36:47;;;;;;;5.85;2.40;;;;;;;4.77;78.59;100615.22;5229513;34;34244;-86
2023/01/31 14:40:14;;;;;;;3.85;2.15;;;;;;;4.72;79.49;100612.94;5237019;34;33857;-87
2023/01/31 14:43:23;;;;;;;2.53;2.03;;;;;;;4.73;79.54;100617.28;5239251;34;34147;-89
2023/01/31 14:47:08;;;;;;;3.17;2.03;;;;;;;4.67;83.05;100623.16;5240383;34;34286;-88
2023/01/31 14:50:44;;;;;;;3.97;2.12;;;;;;;4.52;86.10;100619.16;5235251;33;34668;-89
2023/01/31 14:54:01;;;;;;;2.47;1.92;;;;;;;4.57;85.90;100630.28;5231055;33;33275;-88
2023/01/31 14:57:29;;;;;;;5.43;2.22;;;;;;;4.50;88.71;100631.78;5238636;34;33449;-88
2023/01/31 15:00:37;;;;;;;5.40;2.20;;;;;;;4.44;91.70;100630.47;5252768;34;34622;-87
2023/01/31 15:03:51;;;;;;;3.67;2.10;;;;;;;4.46;90.71;100625.03;5249350;33;34917;-88
2023/01/31 15:06:56;;;;;;;4.40;2.35;;;;;;;4.34;92.46;100618.94;5242375;34;33828;-88
2023/01/31 15:09:59;;;;;;;5.18;2.50;;;;;;;4.33;93.49;100614.59;5246971;33;34428;-88
2023/01/31 15:13:02;;;;;;;7.80;2.75;;;;;;;4.31;94.61;100616.53;5242231;34;34797;-88
2023/01/31 15:16:26;;;;;;;4.70;2.60;;;;;;;4.29;94.43;100621.13;5244093;34;33945;-88
2023/01/31 15:19:39;;;;;;;6.90;2.83;;;;;;;4.25;95.80;100628.56;5248027;34;35251;-88
2023/01/31 15:22:44;;;;;;;3.58;2.20;;;;;;;4.23;96.55;100632.31;5247412;33;32711;-88
2023/01/31 15:25:48;;;;;;;3.75;2.28;;;;;;;4.24;96.42;100639.34;5248631;34;34485;-87
2023/01/31 15:28:52;;;;;;;3.37;2.37;;;;;;;4.11;98.58;100636.87;5247387;33;32602;-88
2023/01/31 15:32:02;;;;;;;4.28;2.30;;;;;;;3.93;98.85;100633.09;5247055;34;34321;-87
2023/01/31 15:35:19;;;;;;;3.97;2.53;;;;;;;3.86;100.00;100643.41;5247597;34;35499;-88
2023/01/31 15:38:47;;;;;;;3.25;2.37;;;;;;;3.78;100.00;100645.88;5302825;28;35215;-88
2023/01/31 15:41:53;;;;;;;3.28;2.22;;;;;;;3.75;100.00;100641.66;5340344;28;34300;-88
2023/01/31 15:45:30;;;;;;;5.68;2.53;;;;;;;3.73;100.00;100640.94;5259214;33;35071;-88
2023/01/31 15:57:15;;;;;;;9.07;3.05;;;;;;;3.86;100.00;100628.31;1286744;29;20453;-88
2023/01/31 16:27:15;;;;;;;4.55;3.00;;;;;;;3.39;100.00;100634.88;3954665;28;20132;-87
2023/01/31 16:30:18;;;;;;;6.18;2.90;;;;;;;3.41;100.00;100633.78;5260361;33;35484;-92
2023/01/31 16:33:22;;;;;;;5.30;2.60;;;;;;;3.47;100.00;100636.91;5267649;33;35313;-90
2023/01/31 16:36:33;;;;;;;7.50;3.20;;;;;;;3.38;100.00;100633.19;5258366;33;35263;-89
2023/01/31 16:39:40;;;;;;;5.78;3.15;;;;;;;3.48;100.00;100643.91;5258644;33;35268;-87
2023/01/31 16:42:43;;;;;;;8.15;3.72;;;;;;;3.39;100.00;100641.06;5258191;33;34002;-86
2023/01/31 16:46:17;;;;;;;6.55;3.12;;;;;;;3.46;100.00;100645.88;5260400;33;34337;-87
2023/01/31 16:49:26;;;;;;;5.12;3.12;;;;;;;3.45;100.00;100649.50;5262912;33;34376;-87
2023/01/31 16:52:29;;;;;;;7.30;3.35;;;;;;;3.50;100.00;100637.50;5263759;33;34324;-87
2023/01/31 16:55:32;;;;;;;6.72;3.37;;;;;;;3.58;100.00;100644.88;5268049;28;33756;-87
2023/01/31 16:58:51;;;;;;;6.75;3.00;;;;;;;3.53;100.00;100641.72;5245385;33;34053;-87
